createdAt,value
2022-09-21T00:01:17.753Z,99.90
2022-09-21T00:03:47.191Z,99.90
2022-09-21T00:06:16.971Z,99.90
2022-09-21T00:08:46.047Z,99.90
2022-09-21T00:11:15.036Z,99.90
2022-09-21T00:13:43.622Z,99.90
2022-09-21T00:16:11.598Z,99.90
2022-09-21T00:18:40.836Z,99.90
2022-09-21T00:21:09.943Z,99.90
2022-09-21T00:23:38.775Z,99.90
2022-09-21T00:26:08.540Z,99.90
2022-09-21T00:28:36.538Z,99.90
2022-09-21T00:31:06.870Z,99.90
2022-09-21T00:33:35.706Z,99.90
2022-09-21T00:36:06.379Z,99.90
2022-09-21T00:38:35.263Z,99.90
2022-09-21T00:41:04.096Z,99.90
2022-09-21T00:43:35.181Z,99.90
2022-09-21T00:46:06.491Z,99.90
2022-09-21T00:48:35.465Z,99.90
2022-09-21T00:51:07.615Z,99.90
2022-09-21T00:53:36.591Z,99.90
2022-09-21T00:56:05.831Z,99.90
2022-09-21T00:58:37.754Z,99.90
2022-09-21T01:01:05.792Z,99.90
2022-09-21T01:03:33.910Z,99.90
2022-09-21T01:06:02.277Z,99.90
2022-09-21T01:08:34.350Z,99.90
2022-09-21T01:11:26.190Z,99.90
2022-09-21T01:14:12.702Z,99.90
2022-09-21T01:16:47.198Z,99.90
2022-09-21T01:19:34.907Z,99.90
2022-09-21T01:22:15.726Z,99.90
2022-09-21T01:25:09.464Z,99.90
2022-09-21T01:28:08.490Z,99.90
2022-09-21T01:30:39.758Z,99.90
2022-09-21T01:33:12.096Z,99.90
2022-09-21T01:35:44.815Z,99.90
2022-09-21T01:38:16.833Z,99.90
2022-09-21T01:40:50.257Z,99.90
2022-09-21T01:43:25.724Z,99.90
2022-09-21T01:45:58.023Z,99.90
2022-09-21T01:48:27.090Z,99.90
2022-09-21T01:50:58.338Z,99.90
2022-09-21T01:53:34.774Z,99.90
2022-09-21T01:56:08.722Z,99.90
2022-09-21T01:58:40.424Z,99.90
2022-09-21T02:01:15.890Z,99.90
2022-09-21T02:03:46.497Z,99.90
2022-09-21T02:06:16.131Z,99.90
2022-09-21T02:08:44.702Z,99.90
2022-09-21T02:11:12.740Z,99.90
2022-09-21T02:13:45.135Z,99.90
2022-09-21T02:16:39.651Z,99.90
2022-09-21T02:19:15.461Z,99.90
2022-09-21T02:25:51.219Z,99.90
2022-09-21T02:28:30.853Z,99.90
2022-09-21T02:31:04.762Z,99.90
2022-09-21T02:33:42.336Z,99.90
2022-09-21T02:36:16.848Z,99.90
2022-09-21T02:38:50.186Z,99.90
2022-09-21T02:41:24.270Z,99.90
2022-09-21T02:43:58.140Z,99.90
2022-09-21T02:46:29.951Z,99.90
2022-09-21T02:49:05.761Z,99.90
2022-09-21T02:51:34.862Z,99.90
2022-09-21T02:54:06.590Z,99.90
2022-09-21T02:56:35.296Z,99.90
2022-09-21T02:59:05.487Z,99.90
2022-09-21T03:01:35.127Z,99.90
2022-09-21T03:04:04.774Z,99.90
2022-09-21T03:06:33.544Z,99.90
2022-09-21T03:09:01.383Z,99.90
2022-09-21T03:11:29.278Z,99.90
2022-09-21T03:13:57.305Z,99.90
2022-09-21T03:16:25.460Z,99.90
2022-09-21T03:18:53.277Z,99.90
2022-09-21T03:21:23.070Z,99.90
2022-09-21T03:23:51.153Z,99.90
2022-09-21T03:26:22.303Z,99.90
2022-09-21T03:28:50.380Z,99.90
2022-09-21T03:31:18.383Z,99.90
2022-09-21T03:33:46.249Z,99.90
2022-09-21T03:36:14.848Z,99.90
2022-09-21T03:38:44.305Z,99.90
2022-09-21T03:41:13.614Z,99.90
2022-09-21T03:43:41.459Z,99.90
2022-09-21T03:46:09.357Z,99.90
2022-09-21T03:48:37.245Z,99.90
2022-09-21T03:51:05.387Z,99.90
2022-09-21T03:53:33.269Z,99.90
2022-09-21T03:56:03.053Z,99.90
2022-09-21T03:58:31.095Z,99.90
2022-09-21T04:01:02.877Z,99.90
2022-09-21T04:03:31.141Z,99.90
2022-09-21T04:05:59.024Z,99.90
2022-09-21T04:08:27.127Z,99.90
2022-09-21T04:10:56.316Z,99.90
2022-09-21T04:13:25.629Z,99.90
2022-09-21T04:15:53.679Z,99.90
2022-09-21T04:18:22.235Z,99.90
2022-09-21T04:20:50.240Z,99.90
2022-09-21T04:23:19.291Z,99.90
2022-09-21T04:25:51.354Z,99.90
2022-09-21T04:28:19.256Z,99.90
2022-09-21T04:30:48.723Z,99.90
2022-09-21T04:33:16.637Z,99.90
2022-09-21T04:35:44.579Z,99.90
2022-09-21T04:38:13.666Z,99.90
2022-09-21T04:40:41.621Z,99.90
2022-09-21T04:43:09.691Z,99.90
2022-09-21T04:45:37.603Z,99.90
2022-09-21T04:48:07.066Z,99.90
2022-09-21T04:50:34.987Z,99.90
2022-09-21T04:53:04.454Z,99.90
2022-09-21T04:55:32.813Z,99.90
2022-09-21T04:58:00.812Z,99.90
2022-09-21T05:00:29.062Z,99.90
2022-09-21T05:02:57.121Z,99.90
2022-09-21T05:05:26.588Z,99.90
2022-09-21T05:07:54.443Z,99.90
2022-09-21T05:10:21.379Z,99.90
2022-09-21T05:12:49.330Z,99.90
2022-09-21T05:15:17.530Z,99.90
2022-09-21T05:17:46.877Z,99.90
2022-09-21T05:20:14.746Z,99.90
2022-09-21T05:22:44.200Z,99.90
2022-09-21T05:25:12.074Z,99.90
2022-09-21T05:27:39.954Z,99.90
2022-09-21T05:30:09.378Z,99.90
2022-09-21T05:32:46.531Z,99.90
2022-09-21T05:35:23.606Z,99.90
2022-09-21T05:37:58.340Z,99.90
2022-09-21T05:40:27.123Z,99.90
2022-09-21T05:42:56.261Z,99.90
2022-09-21T05:45:24.797Z,99.90
2022-09-21T05:48:02.028Z,99.90
2022-09-21T05:50:39.188Z,99.90
2022-09-21T05:53:32.028Z,99.90
2022-09-21T05:56:01.557Z,99.90
2022-09-21T05:58:38.222Z,99.90
2022-09-21T06:01:22.802Z,99.90
2022-09-21T06:03:51.294Z,99.90
2022-09-21T06:06:20.461Z,99.90
2022-09-21T06:08:49.961Z,99.90
2022-09-21T06:11:18.130Z,99.90
2022-09-21T06:13:46.252Z,99.90
2022-09-21T06:16:14.270Z,99.90
2022-09-21T06:18:42.644Z,99.90
2022-09-21T06:21:11.039Z,99.90
2022-09-21T06:23:39.272Z,99.90
2022-09-21T06:26:08.716Z,99.90
2022-09-21T06:28:36.911Z,99.90
2022-09-21T06:31:05.005Z,99.90
2022-09-21T06:33:35.481Z,99.90
2022-09-21T06:36:03.765Z,99.90
2022-09-21T06:38:32.042Z,99.90
2022-09-21T06:41:02.931Z,99.90
2022-09-21T06:43:32.659Z,99.90
2022-09-21T06:46:02.545Z,99.90
2022-09-21T06:48:33.337Z,99.90
2022-09-21T06:51:02.254Z,99.90
2022-09-21T06:53:31.749Z,99.90
2022-09-21T06:56:03.841Z,99.90
2022-09-21T06:58:34.645Z,99.90
2022-09-21T07:01:07.788Z,99.90
2022-09-21T07:03:36.812Z,99.90
2022-09-21T07:06:05.081Z,98.40
2022-09-21T07:11:22.059Z,92.50
2022-09-21T07:13:51.763Z,88.20
2022-09-21T07:16:19.785Z,87.70
2022-09-21T07:18:48.978Z,86.70
2022-09-21T07:21:16.910Z,87.10
2022-09-21T07:23:45.159Z,86.60
2022-09-21T07:26:14.987Z,84.90
2022-09-21T07:28:43.279Z,83.60
2022-09-21T07:31:15.135Z,80.60
2022-09-21T07:33:43.798Z,81.90
2022-09-21T07:36:13.167Z,79.70
2022-09-21T07:38:43.256Z,76.10
2022-09-21T07:41:13.583Z,74.80
2022-09-21T07:43:42.012Z,74.10
2022-09-21T07:46:12.964Z,77.10
2022-09-21T07:48:40.945Z,74.40
2022-09-21T07:51:11.568Z,73.60
2022-09-21T07:53:41.455Z,72.70
2022-09-21T07:56:11.777Z,74.70
2022-09-21T07:58:57.601Z,75.50
2022-09-21T08:01:27.596Z,79.00
2022-09-21T08:03:56.824Z,78.80
2022-09-21T08:06:26.185Z,78.20
2022-09-21T08:08:57.830Z,77.40
2022-09-21T08:11:27.940Z,81.00
2022-09-21T08:13:57.610Z,74.80
2022-09-21T08:16:27.363Z,67.90
2022-09-21T08:18:55.475Z,66.20
2022-09-21T08:21:23.823Z,67.30
2022-09-21T08:23:51.800Z,69.90
2022-09-21T08:26:21.354Z,73.70
2022-09-21T08:28:51.146Z,76.50
2022-09-21T08:31:20.958Z,83.80
2022-09-21T08:33:51.038Z,78.90
2022-09-21T08:36:19.907Z,77.40
2022-09-21T08:38:48.120Z,77.10
2022-09-21T08:41:20.312Z,75.80
2022-09-21T08:43:52.306Z,74.90
2022-09-21T08:46:23.356Z,72.40
2022-09-21T08:48:59.475Z,72.50
2022-09-21T08:51:30.744Z,75.30
2022-09-21T08:54:01.717Z,75.80
2022-09-21T08:56:41.854Z,74.50
2022-09-21T08:59:17.873Z,69.20
2022-09-21T09:01:56.055Z,70.10
2022-09-21T09:04:50.611Z,68.50
2022-09-21T09:07:34.635Z,69.40
2022-09-21T09:10:21.042Z,68.40
2022-09-21T09:13:02.526Z,70.00
2022-09-21T09:16:05.381Z,70.50
2022-09-21T09:18:43.903Z,68.10
2022-09-21T09:21:28.511Z,65.70
2022-09-21T09:24:03.264Z,65.50
2022-09-21T09:26:37.552Z,67.10
2022-09-21T09:29:19.469Z,65.00
2022-09-21T09:31:48.965Z,68.50
2022-09-21T09:34:20.776Z,68.10
2022-09-21T09:36:58.744Z,70.50
2022-09-21T09:39:30.761Z,71.30
2022-09-21T09:42:12.223Z,71.40
2022-09-21T09:45:11.835Z,70.80
2022-09-21T09:47:51.615Z,66.90
2022-09-21T09:50:27.471Z,63.90
2022-09-21T09:53:04.990Z,62.60
2022-09-21T09:55:38.908Z,65.80
2022-09-21T09:58:17.808Z,72.20
2022-09-21T10:00:46.622Z,79.70
2022-09-21T10:03:20.319Z,78.20
2022-09-21T10:08:42.204Z,67.40
2022-09-21T10:11:12.026Z,67.20
2022-09-21T10:13:41.178Z,67.30
2022-09-21T10:16:14.727Z,69.30
2022-09-21T10:18:47.596Z,65.10
2022-09-21T10:21:21.020Z,63.80
2022-09-21T10:23:53.785Z,71.90
2022-09-21T10:26:22.786Z,73.40
2022-09-21T10:28:59.015Z,77.70
2022-09-21T10:31:30.134Z,79.50
2022-09-21T10:34:13.570Z,81.30
2022-09-21T10:36:42.251Z,84.80
2022-09-21T10:39:30.602Z,86.70
2022-09-21T10:42:03.071Z,90.50
2022-09-21T10:44:38.491Z,92.50
2022-09-21T10:47:18.272Z,94.60
2022-09-21T10:49:50.500Z,95.30
2022-09-21T10:52:20.284Z,96.20
2022-09-21T10:54:52.927Z,99.90
2022-09-21T10:57:24.155Z,99.90
2022-09-21T10:59:52.297Z,99.90
2022-09-21T11:02:34.715Z,99.90
2022-09-21T11:05:08.223Z,99.90
2022-09-21T11:07:40.944Z,99.90
2022-09-21T11:10:19.229Z,99.90
2022-09-21T11:12:56.616Z,99.90
2022-09-21T11:15:34.890Z,99.90
2022-09-21T11:18:13.058Z,99.90
2022-09-21T11:20:45.126Z,99.90
2022-09-21T11:23:24.500Z,99.90
2022-09-21T11:26:01.365Z,99.90
2022-09-21T11:28:37.896Z,99.90
2022-09-21T11:31:37.175Z,99.90
2022-09-21T11:34:20.928Z,99.90
2022-09-21T11:37:01.826Z,99.90
2022-09-21T11:39:41.969Z,99.90
2022-09-21T11:42:23.110Z,99.90
2022-09-21T11:44:56.123Z,99.90
2022-09-21T11:47:40.688Z,99.90
2022-09-21T11:50:31.307Z,99.90
2022-09-21T11:53:14.488Z,99.90
2022-09-21T11:55:58.426Z,99.90
2022-09-21T11:58:34.388Z,99.90
2022-09-21T12:01:15.967Z,99.90
2022-09-21T12:04:03.781Z,99.90
2022-09-21T12:06:46.185Z,99.90
2022-09-21T12:09:34.439Z,99.90
2022-09-21T12:12:10.138Z,99.90
2022-09-21T12:14:49.248Z,99.90
2022-09-21T12:17:25.008Z,99.90
2022-09-21T12:20:02.273Z,99.90
2022-09-21T12:22:33.690Z,99.90
2022-09-21T12:25:07.477Z,99.90
2022-09-21T12:27:39.212Z,99.90
2022-09-21T12:30:16.912Z,99.90
2022-09-21T12:32:53.661Z,99.90
2022-09-21T12:35:28.110Z,99.90
2022-09-21T12:38:01.602Z,99.90
2022-09-21T12:40:39.315Z,99.90
2022-09-21T12:43:18.493Z,99.40
2022-09-21T12:45:53.335Z,99.90
2022-09-21T12:48:29.629Z,99.90
2022-09-21T12:51:05.801Z,99.90
2022-09-21T12:53:37.803Z,99.90
2022-09-21T12:56:11.101Z,99.90
2022-09-21T12:58:54.917Z,99.90
2022-09-21T13:01:30.988Z,99.90
2022-09-21T13:04:13.405Z,99.90
2022-09-21T13:06:58.985Z,99.90
2022-09-21T13:09:28.484Z,99.90
2022-09-21T13:11:59.857Z,99.90
2022-09-21T13:14:30.323Z,99.90
2022-09-21T13:17:02.966Z,99.90
2022-09-21T13:19:32.961Z,99.90
2022-09-21T13:22:22.382Z,99.90
2022-09-21T13:25:03.049Z,99.90
2022-09-21T13:28:01.450Z,99.90
2022-09-21T13:30:36.564Z,99.90
2022-09-21T13:33:23.329Z,99.90
2022-09-21T13:36:03.399Z,99.90
2022-09-21T13:38:34.133Z,99.90
2022-09-21T13:41:03.353Z,99.90
2022-09-21T13:44:04.960Z,99.90
2022-09-21T13:46:58.132Z,99.90
2022-09-21T13:49:35.157Z,99.90
2022-09-21T13:52:07.334Z,99.90
2022-09-21T13:54:37.862Z,99.90
2022-09-21T13:57:22.298Z,99.90
2022-09-21T14:00:07.588Z,99.90
2022-09-21T14:02:42.904Z,99.90
2022-09-21T14:05:25.372Z,99.90
2022-09-21T14:07:57.432Z,99.90
2022-09-21T14:10:27.085Z,99.90
2022-09-21T14:12:54.982Z,99.90
2022-09-21T14:15:37.789Z,99.90
2022-09-21T14:18:47.617Z,99.90
2022-09-21T14:21:18.982Z,99.90
2022-09-21T14:24:11.029Z,99.90
2022-09-21T14:26:55.252Z,99.90
2022-09-21T14:29:28.270Z,99.90
2022-09-21T14:31:59.320Z,99.90
2022-09-21T14:34:32.987Z,99.90
2022-09-21T14:37:05.778Z,99.90
2022-09-21T14:39:38.234Z,99.90
2022-09-21T14:42:12.540Z,99.90
2022-09-21T14:44:42.528Z,99.90
2022-09-21T14:47:28.628Z,99.90
2022-09-21T14:50:15.236Z,99.90
2022-09-21T14:53:01.837Z,99.90
2022-09-21T14:55:34.437Z,99.90
2022-09-21T14:58:24.798Z,99.90
2022-09-21T15:00:53.318Z,99.90
2022-09-21T15:03:53.383Z,99.90
2022-09-21T15:06:45.254Z,99.90
2022-09-21T15:10:03.425Z,99.90
2022-09-21T15:12:41.541Z,99.90
2022-09-21T15:15:31.426Z,99.90
2022-09-21T15:18:01.886Z,99.90
2022-09-21T15:20:32.326Z,99.90
2022-09-21T15:23:02.105Z,99.90
2022-09-21T15:25:34.309Z,99.90
2022-09-21T15:28:03.983Z,99.90
2022-09-21T15:30:34.353Z,99.90
2022-09-21T15:33:03.555Z,99.90
2022-09-21T15:35:33.195Z,99.90
2022-09-21T15:38:02.015Z,99.90
2022-09-21T15:40:34.221Z,99.90
2022-09-21T15:43:04.497Z,99.90
2022-09-21T15:45:37.319Z,99.90
2022-09-21T15:48:10.971Z,99.90
2022-09-21T15:50:39.195Z,99.90
2022-09-21T15:53:12.202Z,99.90
2022-09-21T15:55:41.980Z,99.90
2022-09-21T15:58:25.691Z,99.90
2022-09-21T16:00:57.663Z,99.90
2022-09-21T16:03:27.117Z,99.90
2022-09-21T16:05:57.694Z,99.90
2022-09-21T16:08:33.055Z,99.90
2022-09-21T16:11:18.868Z,99.90
2022-09-21T16:14:20.137Z,99.90
2022-09-21T16:17:21.333Z,99.90
2022-09-21T16:20:10.495Z,99.90
2022-09-21T16:22:41.178Z,99.90
2022-09-21T16:25:23.254Z,99.90
2022-09-21T16:27:55.470Z,99.90
2022-09-21T16:30:42.125Z,99.90
2022-09-21T16:33:40.961Z,99.90
2022-09-21T16:36:35.255Z,99.90
2022-09-21T16:39:06.140Z,99.90
2022-09-21T16:41:36.980Z,99.90
2022-09-21T16:44:06.305Z,99.90
2022-09-21T16:46:34.437Z,99.90
2022-09-21T16:49:02.406Z,99.90
2022-09-21T16:51:30.271Z,99.90
2022-09-21T16:53:58.591Z,99.90
2022-09-21T16:56:27.114Z,99.90
2022-09-21T16:58:57.125Z,99.90
2022-09-21T17:01:27.321Z,99.90
2022-09-21T17:03:56.782Z,99.90
2022-09-21T17:06:24.650Z,99.90
2022-09-21T17:08:52.651Z,99.90
2022-09-21T17:11:21.092Z,99.90
2022-09-21T17:13:49.336Z,99.90
2022-09-21T17:16:19.704Z,99.90
2022-09-21T17:18:50.636Z,99.90
2022-09-21T17:21:18.482Z,99.90
2022-09-21T17:23:46.679Z,99.90
2022-09-21T17:26:21.062Z,99.90
2022-09-21T17:28:49.152Z,99.90
2022-09-21T17:31:17.904Z,99.90
2022-09-21T17:33:50.382Z,99.90
2022-09-21T17:36:19.497Z,99.90
2022-09-21T17:39:03.610Z,99.90
2022-09-21T17:41:39.727Z,99.90
2022-09-21T17:44:14.887Z,99.90
2022-09-21T17:46:52.472Z,99.90
2022-09-21T17:49:22.286Z,99.90
2022-09-21T17:52:08.042Z,99.90
2022-09-21T17:54:40.027Z,99.90
2022-09-21T17:57:15.551Z,99.90
2022-09-21T17:59:46.868Z,99.90
2022-09-21T18:02:26.369Z,99.90
2022-09-21T18:05:10.692Z,99.90
2022-09-21T18:07:39.135Z,99.90
2022-09-21T18:10:08.186Z,99.90
2022-09-21T18:13:20.404Z,99.90
2022-09-21T18:16:03.694Z,99.90
2022-09-21T18:18:44.308Z,99.90
2022-09-21T18:21:19.306Z,99.90
2022-09-21T18:24:14.830Z,99.90
2022-09-21T18:26:43.150Z,99.90
2022-09-21T18:29:38.971Z,99.90
2022-09-21T18:32:29.496Z,99.90
2022-09-21T18:35:14.912Z,99.90
2022-09-21T18:37:59.489Z,99.90
2022-09-21T18:40:35.489Z,99.90
2022-09-21T18:43:13.519Z,99.90
2022-09-21T18:45:45.498Z,99.90
2022-09-21T18:48:23.725Z,99.90
2022-09-21T18:50:59.766Z,99.90
2022-09-21T18:53:37.084Z,99.90
2022-09-21T18:56:05.828Z,99.90
2022-09-21T18:58:34.741Z,99.90
2022-09-21T19:01:04.156Z,99.90
2022-09-21T19:03:32.751Z,99.90
2022-09-21T19:06:22.277Z,99.90
2022-09-21T19:09:00.588Z,99.90
2022-09-21T19:11:34.873Z,99.90
2022-09-21T19:14:13.692Z,99.90
2022-09-21T19:16:51.574Z,99.90
2022-09-21T19:19:30.917Z,99.90
2022-09-21T19:22:05.370Z,99.90
2022-09-21T19:24:42.626Z,99.90
2022-09-21T19:27:19.224Z,99.90
2022-09-21T19:29:57.971Z,99.90
2022-09-21T19:32:34.577Z,99.90
2022-09-21T19:35:16.180Z,99.90
2022-09-21T19:37:44.335Z,99.90
2022-09-21T19:40:16.057Z,99.90
2022-09-21T19:43:05.081Z,99.90
2022-09-21T19:45:40.578Z,99.90
2022-09-21T19:48:12.414Z,99.90
2022-09-21T19:50:47.308Z,99.90
2022-09-21T19:53:33.614Z,99.90
2022-09-21T19:56:17.788Z,99.90
2022-09-21T19:59:03.662Z,99.90
2022-09-21T20:01:35.304Z,99.90
2022-09-21T20:04:05.397Z,99.90
2022-09-21T20:06:39.554Z,99.90
2022-09-21T20:09:13.563Z,99.90
2022-09-21T20:11:51.540Z,99.90
2022-09-21T20:14:31.124Z,99.90
2022-09-21T20:17:02.174Z,99.90
2022-09-21T20:19:44.506Z,99.90
2022-09-21T20:22:15.019Z,99.90
2022-09-21T20:24:51.196Z,99.90
2022-09-21T20:27:34.898Z,99.90
2022-09-21T20:30:03.202Z,99.90
2022-09-21T20:32:31.871Z,99.90
2022-09-21T20:34:59.736Z,99.90
2022-09-21T20:37:30.417Z,99.90
2022-09-21T20:39:58.258Z,99.90
2022-09-21T20:42:26.898Z,99.90
2022-09-21T20:44:56.204Z,99.90
2022-09-21T20:47:24.079Z,99.90
2022-09-21T20:49:52.188Z,99.90
2022-09-21T20:52:20.081Z,99.90
2022-09-21T20:54:49.544Z,99.90
2022-09-21T20:57:18.053Z,99.90
2022-09-21T20:59:45.939Z,99.90
2022-09-21T21:02:16.592Z,99.90
2022-09-21T21:04:44.500Z,99.90
2022-09-21T21:07:12.434Z,99.90
2022-09-21T21:09:40.325Z,99.90
2022-09-21T21:12:09.413Z,99.90
2022-09-21T21:14:37.501Z,99.90
2022-09-21T21:17:06.111Z,99.90
2022-09-21T21:19:35.788Z,99.90
2022-09-21T21:22:03.845Z,99.90
2022-09-21T21:24:44.238Z,99.90
2022-09-21T21:27:16.321Z,99.90
2022-09-21T21:29:46.285Z,99.90
2022-09-21T21:32:14.933Z,99.90
2022-09-21T21:34:44.640Z,99.90
2022-09-21T21:37:15.990Z,99.90
2022-09-21T21:39:44.178Z,99.90
2022-09-21T21:42:12.669Z,99.90
2022-09-21T21:44:40.870Z,99.90
2022-09-21T21:47:37.654Z,99.90
2022-09-21T21:49:59.186Z,99.90
2022-09-21T21:52:27.093Z,99.90
2022-09-21T21:54:54.951Z,99.90
2022-09-21T21:57:22.886Z,99.90
2022-09-21T21:59:50.713Z,99.90
2022-09-21T22:02:18.595Z,99.90
2022-09-21T22:04:46.444Z,99.90
2022-09-21T22:07:15.686Z,99.90
2022-09-21T22:09:43.664Z,99.90
2022-09-21T22:12:12.119Z,99.90
2022-09-21T22:14:40.088Z,99.90
2022-09-21T22:17:08.073Z,99.90
2022-09-21T22:19:36.121Z,99.90
2022-09-21T22:22:04.046Z,99.90
2022-09-21T22:24:33.441Z,99.90
2022-09-21T22:27:01.361Z,99.90
2022-09-21T22:29:29.394Z,99.90
2022-09-21T22:31:57.602Z,99.90
2022-09-21T22:34:25.562Z,99.90
2022-09-21T22:36:53.845Z,99.90
2022-09-21T22:39:21.727Z,99.90
2022-09-21T22:41:51.229Z,99.90
2022-09-21T22:44:19.132Z,99.90
2022-09-21T22:46:47.161Z,99.90
2022-09-21T22:49:15.036Z,99.90
2022-09-21T22:51:43.144Z,99.90
2022-09-21T22:54:11.042Z,99.90
2022-09-21T22:56:38.924Z,99.90
2022-09-21T22:59:08.536Z,99.90
2022-09-21T23:01:38.345Z,99.90
2022-09-21T23:04:08.441Z,99.90
2022-09-21T23:06:38.358Z,99.90
2022-09-21T23:09:09.137Z,99.90
2022-09-21T23:11:38.996Z,99.90
2022-09-21T23:14:08.192Z,99.90
2022-09-21T23:16:36.325Z,99.90
2022-09-21T23:19:04.192Z,99.90
2022-09-21T23:21:32.246Z,99.90
2022-09-21T23:24:02.076Z,99.90
2022-09-21T23:26:32.081Z,99.90
2022-09-21T23:29:01.572Z,99.90
2022-09-21T23:31:32.423Z,99.90
2022-09-21T23:34:04.390Z,99.90
2022-09-21T23:36:33.062Z,99.90
2022-09-21T23:39:01.102Z,99.90
2022-09-21T23:41:31.041Z,99.90
2022-09-21T23:44:00.057Z,99.90
2022-09-21T23:46:31.577Z,99.90
2022-09-21T23:49:00.778Z,99.90
2022-09-21T23:51:29.931Z,99.90
2022-09-21T23:53:58.726Z,99.90
2022-09-21T23:56:27.169Z,99.90
2022-09-21T23:58:55.162Z,99.90
